createdAt,value
2023-01-05T00:01:43.730Z,20.70
2023-01-05T00:04:10.720Z,20.30
2023-01-05T00:06:37.922Z,21.60
2023-01-05T00:09:05.922Z,22.40
2023-01-05T00:11:59.524Z,20.10
2023-01-05T00:14:48.187Z,20.40
2023-01-05T00:17:36.806Z,20.55
2023-01-05T00:20:25.922Z,20.52
2023-01-05T00:22:54.293Z,21.45
2023-01-05T00:25:22.518Z,21.58
2023-01-05T00:27:51.930Z,18.73
2023-01-05T00:30:37.747Z,20.12
2023-01-05T00:33:04.606Z,18.98
2023-01-05T00:35:31.479Z,20.35
2023-01-05T00:37:58.388Z,22.35
2023-01-05T00:40:25.266Z,20.23
2023-01-05T00:42:52.166Z,22.30
2023-01-05T00:45:19.619Z,19.52
2023-01-05T00:47:48.827Z,20.83
2023-01-05T00:50:17.277Z,21.17
2023-01-05T00:52:44.666Z,21.98
2023-01-05T00:55:11.637Z,20.12
2023-01-05T00:57:39.088Z,18.62
2023-01-05T01:00:11.391Z,18.52
2023-01-05T01:02:38.258Z,19.48
2023-01-05T01:07:32.232Z,18.77
2023-01-05T01:09:59.122Z,18.52
2023-01-05T01:12:25.975Z,19.95
2023-01-05T01:17:19.526Z,22.42
2023-01-05T01:19:47.415Z,21.75
2023-01-05T01:22:14.902Z,21.05
2023-01-05T01:24:41.916Z,24.02
2023-01-05T01:27:08.773Z,19.83
2023-01-05T01:29:35.723Z,21.77
2023-01-05T01:32:02.642Z,20.17
2023-01-05T01:34:29.650Z,20.92
2023-01-05T01:36:56.917Z,18.60
2023-01-05T01:39:23.906Z,19.65
2023-01-05T01:42:04.937Z,19.90
2023-01-05T01:44:51.420Z,19.42
2023-01-05T01:47:28.667Z,22.65
2023-01-05T01:49:56.178Z,21.08
2023-01-05T01:52:24.415Z,19.95
2023-01-05T01:54:52.067Z,19.17
2023-01-05T01:57:19.237Z,17.05
2023-01-05T01:59:46.268Z,19.15
2023-01-05T02:02:13.633Z,18.87
2023-01-05T02:04:40.953Z,20.40
2023-01-05T02:07:08.984Z,20.50
2023-01-05T02:09:35.880Z,20.02
2023-01-05T02:12:53.147Z,20.77
2023-01-05T02:15:36.323Z,19.40
2023-01-05T02:18:31.707Z,20.65
2023-01-05T02:21:16.754Z,22.17
2023-01-05T02:24:13.296Z,20.23
2023-01-05T02:27:03.369Z,20.88
2023-01-05T02:29:40.282Z,19.23
2023-01-05T02:32:07.073Z,18.17
2023-01-05T02:37:15.470Z,17.62
2023-01-05T02:39:57.961Z,19.58
2023-01-05T02:42:26.458Z,18.85
2023-01-05T02:44:53.335Z,16.30
2023-01-05T02:47:26.176Z,16.52
2023-01-05T02:49:57.810Z,16.48
2023-01-05T02:52:25.558Z,18.48
2023-01-05T02:54:59.022Z,18.52
2023-01-05T02:57:50.412Z,20.15
2023-01-05T03:00:29.682Z,15.27
2023-01-05T03:03:02.279Z,15.02
2023-01-05T03:05:33.704Z,17.20
2023-01-05T03:08:11.245Z,18.98
2023-01-05T03:11:12.714Z,17.67
2023-01-05T03:13:41.951Z,17.58
2023-01-05T03:16:11.026Z,20.20
2023-01-05T03:18:57.078Z,22.15
2023-01-05T03:21:27.645Z,18.90
2023-01-05T03:24:15.415Z,18.92
2023-01-05T03:27:01.538Z,19.00
2023-01-05T03:29:47.072Z,18.10
2023-01-05T03:32:41.331Z,17.75
2023-01-05T03:35:34.753Z,19.40
2023-01-05T03:38:25.949Z,18.55
2023-01-05T03:40:54.456Z,19.65
2023-01-05T03:43:21.812Z,18.83
2023-01-05T03:45:55.339Z,20.10
2023-01-05T03:48:23.416Z,19.90
2023-01-05T03:50:50.380Z,19.17
2023-01-05T03:53:17.398Z,22.40
2023-01-05T03:55:44.273Z,21.52
2023-01-05T04:00:39.748Z,21.60
2023-01-05T04:03:06.819Z,20.55
2023-01-05T04:05:33.764Z,23.38
2023-01-05T04:10:28.389Z,22.60
2023-01-05T04:12:55.300Z,21.33
2023-01-05T04:15:22.129Z,21.55
2023-01-05T04:20:17.925Z,21.70
2023-01-05T04:22:44.785Z,23.12
2023-01-05T04:27:38.324Z,23.50
2023-01-05T04:30:05.977Z,24.98
2023-01-05T04:32:32.907Z,22.45
2023-01-05T04:35:03.860Z,22.92
2023-01-05T04:37:40.089Z,23.08
2023-01-05T04:40:09.375Z,23.20
2023-01-05T04:42:36.198Z,22.52
2023-01-05T04:47:29.712Z,23.15
2023-01-05T04:52:33.902Z,21.67
2023-01-05T04:55:00.797Z,24.85
2023-01-05T04:57:27.826Z,22.58
2023-01-05T04:59:57.778Z,22.40
2023-01-05T05:02:24.763Z,22.67
2023-01-05T05:04:51.748Z,22.75
2023-01-05T05:07:18.750Z,21.10
2023-01-05T05:09:52.579Z,20.30
2023-01-05T05:12:20.777Z,20.90
2023-01-05T05:14:48.336Z,20.65
2023-01-05T05:17:16.683Z,21.42
2023-01-05T05:19:43.842Z,22.62
2023-01-05T05:22:11.405Z,20.60
2023-01-05T05:24:38.280Z,20.83
2023-01-05T05:27:05.117Z,19.67
2023-01-05T05:29:31.967Z,22.35
2023-01-05T05:31:58.800Z,18.52
2023-01-05T05:34:25.640Z,17.73
2023-01-05T05:36:52.528Z,18.83
2023-01-05T05:39:19.510Z,19.05
2023-01-05T05:41:49.629Z,19.52
2023-01-05T05:44:16.475Z,19.23
2023-01-05T05:46:43.452Z,18.67
2023-01-05T05:49:10.557Z,17.23
2023-01-05T05:51:37.469Z,17.50
2023-01-05T05:54:04.503Z,18.05
2023-01-05T05:56:31.400Z,17.12
2023-01-05T05:59:01.631Z,15.88
2023-01-05T06:01:29.396Z,16.58
2023-01-05T06:03:56.452Z,13.98
2023-01-05T06:06:23.315Z,14.90
2023-01-05T06:08:51.189Z,14.00
2023-01-05T06:11:19.070Z,13.13
2023-01-05T06:13:46.133Z,15.95
2023-01-05T06:16:13.005Z,12.93
2023-01-05T06:18:39.870Z,13.98
2023-01-05T06:23:33.764Z,12.47
2023-01-05T06:28:27.343Z,11.30
2023-01-05T06:30:55.210Z,12.82
2023-01-05T06:33:22.084Z,12.37
2023-01-05T06:35:48.956Z,11.32
2023-01-05T06:38:16.698Z,12.73
2023-01-05T06:40:44.807Z,11.93
2023-01-05T06:43:12.436Z,12.73
2023-01-05T06:45:39.309Z,11.90
2023-01-05T06:48:06.327Z,13.35
2023-01-05T06:50:36.313Z,13.50
2023-01-05T06:53:03.328Z,13.75
2023-01-05T06:55:30.483Z,14.35
2023-01-05T06:58:00.951Z,13.43
2023-01-05T07:00:29.026Z,16.33
2023-01-05T07:02:55.967Z,15.40
2023-01-05T07:05:24.757Z,15.20
2023-01-05T07:07:51.878Z,15.10
2023-01-05T07:10:18.952Z,20.30
2023-01-05T07:12:45.858Z,20.65
2023-01-05T07:15:12.830Z,19.20
2023-01-05T07:17:39.730Z,19.48
2023-01-05T07:20:08.097Z,20.40
2023-01-05T07:22:35.159Z,18.48
2023-01-05T07:25:02.121Z,19.65
2023-01-05T07:27:28.975Z,20.92
2023-01-05T07:32:22.572Z,19.98
2023-01-05T07:37:24.990Z,18.20
2023-01-05T07:39:52.453Z,20.90
2023-01-05T07:42:19.476Z,19.95
2023-01-05T07:44:46.299Z,19.60
2023-01-05T07:49:39.796Z,20.27
2023-01-05T07:54:33.350Z,18.00
2023-01-05T07:57:00.504Z,19.48
2023-01-05T07:59:27.468Z,19.17
2023-01-05T08:01:54.410Z,22.17
2023-01-05T08:04:21.411Z,21.10
2023-01-05T08:06:48.332Z,20.15
2023-01-05T08:12:00.340Z,20.60
2023-01-05T08:16:54.029Z,19.30
2023-01-05T08:19:20.955Z,22.15
2023-01-05T08:24:14.538Z,18.50
2023-01-05T08:26:41.485Z,17.83
2023-01-05T08:29:08.512Z,20.95
2023-01-05T08:31:37.762Z,19.67
2023-01-05T08:34:05.365Z,19.55
2023-01-05T08:36:33.108Z,21.40
2023-01-05T08:39:01.801Z,18.42
2023-01-05T08:41:31.952Z,19.08
2023-01-05T08:44:04.115Z,19.30
2023-01-05T08:46:33.517Z,21.60
2023-01-05T08:49:02.023Z,19.77
2023-01-05T08:51:29.619Z,18.35
2023-01-05T08:53:56.582Z,18.50
2023-01-05T08:56:28.793Z,17.95
2023-01-05T08:58:59.416Z,16.67
2023-01-05T09:01:27.025Z,17.48
2023-01-05T09:03:54.075Z,18.98
2023-01-05T09:06:20.968Z,17.62
2023-01-05T09:08:48.772Z,18.05
2023-01-05T09:11:26.040Z,17.70
2023-01-05T09:19:16.691Z,17.48
2023-01-05T09:21:44.863Z,16.35
2023-01-05T09:24:15.303Z,14.80
2023-01-05T09:26:42.844Z,16.10
2023-01-05T09:29:11.012Z,14.55
2023-01-05T09:31:40.666Z,17.52
2023-01-05T09:34:07.586Z,14.32
2023-01-05T09:36:34.470Z,13.82
2023-01-05T09:39:01.440Z,13.10
2023-01-05T09:41:33.453Z,12.48
2023-01-05T09:44:08.541Z,13.52
2023-01-05T09:46:39.272Z,16.90
2023-01-05T09:49:08.009Z,18.30
2023-01-05T09:51:36.141Z,14.30
2023-01-05T09:54:03.472Z,15.75
2023-01-05T09:59:45.837Z,15.80
2023-01-05T10:02:28.003Z,19.02
2023-01-05T10:04:55.857Z,16.60
2023-01-05T10:07:25.622Z,15.35
2023-01-05T10:09:53.904Z,17.45
2023-01-05T10:13:06.420Z,17.90
2023-01-05T10:15:42.812Z,17.00
2023-01-05T10:18:12.287Z,15.50
2023-01-05T10:21:02.563Z,17.83
2023-01-05T10:23:40.103Z,13.82
2023-01-05T10:26:25.483Z,14.73
2023-01-05T10:29:00.539Z,16.02
2023-01-05T10:31:48.936Z,17.15
2023-01-05T10:34:54.965Z,15.25
2023-01-05T10:37:35.403Z,17.17
2023-01-05T10:40:05.025Z,17.08
2023-01-05T10:42:46.562Z,16.10
2023-01-05T10:45:18.469Z,18.17
2023-01-05T10:47:46.435Z,16.80
2023-01-05T10:50:36.363Z,14.30
2023-01-05T10:53:24.643Z,14.87
2023-01-05T10:55:57.617Z,14.48
2023-01-05T10:58:29.935Z,15.18
2023-01-05T11:01:03.991Z,14.07
2023-01-05T11:04:14.943Z,15.43
2023-01-05T11:06:25.812Z,16.62
2023-01-05T11:08:52.813Z,16.00
2023-01-05T11:11:25.352Z,15.95
2023-01-05T11:13:59.093Z,15.23
2023-01-05T11:16:34.317Z,14.75
2023-01-05T11:19:04.364Z,14.40
2023-01-05T11:21:38.009Z,16.35
2023-01-05T11:24:05.628Z,16.60
2023-01-05T11:26:39.413Z,13.82
2023-01-05T11:29:09.234Z,15.05
2023-01-05T11:31:58.843Z,15.57
2023-01-05T11:34:48.085Z,15.65
2023-01-05T11:37:27.807Z,13.75
2023-01-05T11:40:00.166Z,14.45
2023-01-05T11:42:27.013Z,14.25
2023-01-05T11:45:22.487Z,13.70
2023-01-05T11:48:05.618Z,12.27
2023-01-05T11:50:42.553Z,13.50
2023-01-05T11:53:22.138Z,12.23
2023-01-05T11:56:01.026Z,11.95
2023-01-05T11:58:33.626Z,13.48
2023-01-05T12:01:42.361Z,13.18
2023-01-05T12:04:25.103Z,11.73
2023-01-05T12:06:55.348Z,12.48
2023-01-05T12:09:39.709Z,12.40
2023-01-05T12:12:15.652Z,16.05
2023-01-05T12:15:04.795Z,17.30
2023-01-05T12:18:08.458Z,12.43
2023-01-05T12:20:54.455Z,11.15
2023-01-05T12:23:30.285Z,9.30
2023-01-05T12:26:45.127Z,10.25
2023-01-05T12:34:01.432Z,8.95
2023-01-05T12:36:24.381Z,7.78
2023-01-05T12:39:01.717Z,5.95
2023-01-05T12:44:32.089Z,8.32
2023-01-05T12:47:30.036Z,9.75
2023-01-05T12:50:21.373Z,9.98
2023-01-05T12:53:14.020Z,7.82
2023-01-05T12:55:45.702Z,9.23
2023-01-05T12:58:22.828Z,5.72
2023-01-05T13:00:59.232Z,7.90
2023-01-05T13:03:32.247Z,10.90
2023-01-05T13:06:08.810Z,9.57
2023-01-05T13:08:43.133Z,7.68
2023-01-05T13:11:26.900Z,7.93
2023-01-05T13:14:06.533Z,7.05
2023-01-05T13:16:39.688Z,6.75
2023-01-05T13:19:13.033Z,6.25
2023-01-05T13:21:42.754Z,5.05
2023-01-05T13:24:13.589Z,4.30
2023-01-05T13:26:40.831Z,5.57
2023-01-05T13:29:25.004Z,5.50
2023-01-05T13:32:06.280Z,6.20
2023-01-05T13:34:38.915Z,4.12
2023-01-05T13:37:24.522Z,6.22
2023-01-05T13:39:51.339Z,8.70
2023-01-05T13:42:33.579Z,9.18
2023-01-05T13:45:37.999Z,7.18
2023-01-05T13:48:13.087Z,7.93
2023-01-05T13:51:06.642Z,4.00
2023-01-05T13:53:37.925Z,7.18
2023-01-05T13:56:17.083Z,5.93
2023-01-05T13:59:03.136Z,6.55
2023-01-05T14:01:43.445Z,4.35
2023-01-05T14:04:22.497Z,5.62
2023-01-05T14:06:52.474Z,4.75
2023-01-05T14:09:46.155Z,4.97
2023-01-05T14:12:15.954Z,6.45
2023-01-05T14:15:06.155Z,5.82
2023-01-05T14:17:55.660Z,6.15
2023-01-05T14:20:49.182Z,4.07
2023-01-05T14:23:31.967Z,6.85
2023-01-05T14:26:00.914Z,7.25
2023-01-05T14:28:30.863Z,5.80
2023-01-05T14:31:37.227Z,4.20
2023-01-05T14:34:10.291Z,5.65
2023-01-05T14:36:39.441Z,4.50
2023-01-05T14:39:28.903Z,6.45
2023-01-05T14:42:00.212Z,6.55
2023-01-05T14:44:44.328Z,7.78
2023-01-05T14:47:11.918Z,3.42
2023-01-05T14:49:55.969Z,6.30
2023-01-05T14:52:55.133Z,2.95
2023-01-05T14:56:03.517Z,3.30
2023-01-05T14:58:36.312Z,4.72
2023-01-05T15:01:17.247Z,3.15
2023-01-05T15:03:57.886Z,7.12
2023-01-05T15:06:39.204Z,4.53
2023-01-05T15:09:23.071Z,5.28
2023-01-05T15:12:40.131Z,6.07
2023-01-05T15:15:31.413Z,8.05
2023-01-05T15:18:08.505Z,6.72
2023-01-05T15:20:51.284Z,8.23
2023-01-05T15:26:37.065Z,7.07
2023-01-05T15:29:31.876Z,6.75
2023-01-05T15:31:58.695Z,5.62
2023-01-05T15:34:37.816Z,8.63
2023-01-05T15:37:31.130Z,10.55
2023-01-05T15:40:07.681Z,7.32
2023-01-05T15:42:46.405Z,6.53
2023-01-05T15:45:23.744Z,6.57
2023-01-05T15:50:40.814Z,8.00
2023-01-05T15:53:33.435Z,12.68
2023-01-05T15:56:00.881Z,6.07
2023-01-05T15:58:30.366Z,6.10
2023-01-05T16:01:11.111Z,9.52
2023-01-05T16:03:39.799Z,9.65
2023-01-05T16:06:16.986Z,10.73
2023-01-05T16:08:46.543Z,7.43
2023-01-05T16:11:17.884Z,7.12
2023-01-05T16:13:52.548Z,9.30
2023-01-05T16:16:50.132Z,7.15
2023-01-05T16:19:24.954Z,8.68
2023-01-05T16:22:05.520Z,7.70
2023-01-05T16:24:43.616Z,7.10
2023-01-05T16:27:13.647Z,5.45
2023-01-05T16:29:45.882Z,8.32
2023-01-05T16:32:54.910Z,6.55
2023-01-05T16:38:11.181Z,5.03
2023-01-05T16:40:46.982Z,5.43
2023-01-05T16:44:16.998Z,7.43
2023-01-05T16:46:49.323Z,7.65
2023-01-05T16:49:22.298Z,6.03
2023-01-05T16:51:49.245Z,8.23
2023-01-05T16:54:38.389Z,5.82
2023-01-05T16:57:35.939Z,7.40
2023-01-05T17:00:04.454Z,7.17
2023-01-05T17:02:35.658Z,3.95
2023-01-05T17:05:02.571Z,4.82
2023-01-05T17:07:29.449Z,4.97
2023-01-05T17:09:56.388Z,4.28
2023-01-05T17:12:23.395Z,4.18
2023-01-05T17:14:50.665Z,5.97
2023-01-05T17:19:54.212Z,4.62
2023-01-05T17:22:21.457Z,4.70
2023-01-05T17:24:48.570Z,6.53
2023-01-05T17:27:15.481Z,4.20
2023-01-05T17:29:42.685Z,3.62
2023-01-05T17:32:11.603Z,4.35
2023-01-05T17:34:39.640Z,4.75
2023-01-05T17:37:07.526Z,3.95
2023-01-05T17:39:34.443Z,4.45
2023-01-05T17:42:22.745Z,5.32
2023-01-05T17:44:52.084Z,6.07
2023-01-05T17:47:19.120Z,4.53
2023-01-05T17:49:46.070Z,5.32
2023-01-05T17:52:14.009Z,2.95
2023-01-05T17:54:41.940Z,3.75
2023-01-05T17:57:12.357Z,7.47
2023-01-05T17:59:39.269Z,5.35
2023-01-05T18:02:06.172Z,4.07
2023-01-05T18:04:33.291Z,2.80
2023-01-05T18:07:01.140Z,3.72
2023-01-05T18:09:28.055Z,3.53
2023-01-05T18:11:55.070Z,5.12
2023-01-05T18:14:21.937Z,5.03
2023-01-05T18:16:48.770Z,4.57
2023-01-05T18:19:15.843Z,4.68
2023-01-05T18:24:10.461Z,2.67
2023-01-05T18:26:37.414Z,3.62
2023-01-05T18:29:04.390Z,3.30
2023-01-05T18:31:31.221Z,1.73
2023-01-05T18:33:58.067Z,4.03
2023-01-05T18:36:24.979Z,4.72
2023-01-05T18:38:51.868Z,2.50
2023-01-05T18:41:24.220Z,3.35
2023-01-05T18:43:51.086Z,5.28
2023-01-05T18:46:18.082Z,4.18
2023-01-05T18:48:49.461Z,3.67
2023-01-05T18:51:16.427Z,6.40
2023-01-05T18:53:43.470Z,4.50
2023-01-05T18:56:13.003Z,3.62
2023-01-05T18:58:39.859Z,4.80
2023-01-05T19:01:12.137Z,2.87
2023-01-05T19:03:39.386Z,3.42
2023-01-05T19:06:08.536Z,6.57
2023-01-05T19:08:35.774Z,3.15
2023-01-05T19:11:13.787Z,5.60
2023-01-05T19:13:41.092Z,6.60
2023-01-05T19:16:08.809Z,6.70
2023-01-05T19:18:35.736Z,4.22
2023-01-05T19:21:02.689Z,4.28
2023-01-05T19:23:30.070Z,5.00
2023-01-05T19:26:04.482Z,5.80
2023-01-05T19:28:32.154Z,5.72
2023-01-05T19:31:15.361Z,4.12
2023-01-05T19:33:42.623Z,5.32
2023-01-05T19:36:16.662Z,4.03
2023-01-05T19:38:44.863Z,3.90
2023-01-05T19:41:18.211Z,6.18
2023-01-05T19:43:48.434Z,3.42
2023-01-05T19:46:16.935Z,4.65
2023-01-05T19:48:44.779Z,6.10
2023-01-05T19:51:15.153Z,4.18
2023-01-05T19:53:43.075Z,3.47
2023-01-05T19:56:14.585Z,2.85
2023-01-05T19:58:42.774Z,5.20
2023-01-05T20:01:14.207Z,5.22
2023-01-05T20:03:43.675Z,4.20
2023-01-05T20:06:16.533Z,4.90
2023-01-05T20:08:43.430Z,4.10
2023-01-05T20:11:14.252Z,2.42
2023-01-05T20:13:41.380Z,4.70
2023-01-05T20:16:10.507Z,5.35
2023-01-05T20:18:38.454Z,4.37
2023-01-05T20:21:07.044Z,7.57
2023-01-05T20:23:39.011Z,3.72
2023-01-05T20:26:11.450Z,3.12
2023-01-05T20:28:38.964Z,5.45
2023-01-05T20:31:14.249Z,5.20
2023-01-05T20:33:41.129Z,4.93
2023-01-05T20:36:08.033Z,3.17
2023-01-05T20:38:34.899Z,3.28
2023-01-05T20:41:01.813Z,5.32
2023-01-05T20:43:28.677Z,3.15
2023-01-05T20:45:55.523Z,3.92
2023-01-05T20:48:22.388Z,6.78
2023-01-05T20:50:49.229Z,5.40
2023-01-05T20:55:46.644Z,3.50
2023-01-05T20:58:13.486Z,2.17
2023-01-05T21:01:09.616Z,5.60
2023-01-05T21:03:28.196Z,4.00
2023-01-05T21:05:55.212Z,2.45
2023-01-05T21:08:22.090Z,3.37
2023-01-05T21:10:54.229Z,4.00
2023-01-05T21:13:31.598Z,5.35
2023-01-05T21:16:04.982Z,4.87
2023-01-05T21:18:33.611Z,4.57
2023-01-05T21:21:00.670Z,5.05
2023-01-05T21:23:27.504Z,4.53
2023-01-05T21:28:36.243Z,8.48
2023-01-05T21:31:05.397Z,5.35
2023-01-05T21:33:32.746Z,6.18
2023-01-05T21:36:00.002Z,4.03
2023-01-05T21:38:26.919Z,3.12
2023-01-05T21:41:14.357Z,2.72
2023-01-05T21:43:41.282Z,3.35
2023-01-05T21:46:10.365Z,5.28
2023-01-05T21:48:37.272Z,3.60
2023-01-05T21:51:23.538Z,3.75
2023-01-05T21:54:09.031Z,3.53
2023-01-05T21:56:40.050Z,4.45
2023-01-05T21:59:10.429Z,2.97
2023-01-05T22:01:38.793Z,2.22
2023-01-05T22:04:05.907Z,1.75
2023-01-05T22:06:33.363Z,6.50
2023-01-05T22:09:00.296Z,4.28
2023-01-05T22:11:27.175Z,7.22
2023-01-05T22:13:54.023Z,3.25
2023-01-05T22:16:20.927Z,5.85
2023-01-05T22:18:48.027Z,4.68
2023-01-05T22:21:15.190Z,5.78
2023-01-05T22:23:42.040Z,2.35
2023-01-05T22:26:11.406Z,2.87
2023-01-05T22:28:41.273Z,4.03
2023-01-05T22:31:12.420Z,2.22
2023-01-05T22:33:46.486Z,3.17
2023-01-05T22:36:14.438Z,2.45
2023-01-05T22:38:43.087Z,7.40
2023-01-05T22:41:12.218Z,5.78
2023-01-05T22:43:40.998Z,2.03
2023-01-05T22:46:12.272Z,3.55
2023-01-05T22:48:41.293Z,2.97
2023-01-05T22:51:13.585Z,4.25
2023-01-05T22:53:41.181Z,3.70
2023-01-05T22:56:09.657Z,4.60
2023-01-05T22:58:36.928Z,4.22
2023-01-05T23:01:36.993Z,4.60
2023-01-05T23:04:05.592Z,3.28
2023-01-05T23:06:32.832Z,6.55
2023-01-05T23:08:59.885Z,6.65
2023-01-05T23:11:32.507Z,5.80
2023-01-05T23:14:01.395Z,8.30
2023-01-05T23:16:28.744Z,7.95
2023-01-05T23:18:56.021Z,5.03
2023-01-05T23:21:24.307Z,3.15
2023-01-05T23:23:52.245Z,7.00
2023-01-05T23:26:19.461Z,4.90
2023-01-05T23:28:46.634Z,7.85
2023-01-05T23:31:14.828Z,5.97
2023-01-05T23:33:42.559Z,6.62
2023-01-05T23:36:10.500Z,9.02
2023-01-05T23:38:37.883Z,5.45
2023-01-05T23:41:08.348Z,8.70
2023-01-05T23:43:37.923Z,5.90
2023-01-05T23:46:08.183Z,9.82
2023-01-05T23:48:36.207Z,4.60
2023-01-05T23:51:04.671Z,3.40
2023-01-05T23:53:31.745Z,5.37
2023-01-05T23:56:06.946Z,5.97
2023-01-05T23:58:33.929Z,5.82
